sensor_id;sensor_type;location;lat;lon;timestamp;pressure;altitude;pressure_sealevel;temperature;humidity
12247;BME280;6186;52.022;4.692;2023-10-19T00:01:41;99252.84;;;12.96;94.69
12247;BME280;6186;52.022;4.692;2023-10-19T00:04:07;99250.97;;;12.98;95.05
12247;BME280;6186;52.022;4.692;2023-10-19T00:06:32;99246.53;;;12.99;95.08
12247;BME280;6186;52.022;4.692;2023-10-19T00:08:57;99248.09;;;13.03;95.25
12247;BME280;6186;52.022;4.692;2023-10-19T00:11:22;99244.31;;;13.07;95.46
12247;BME280;6186;52.022;4.692;2023-10-19T00:13:48;99244.88;;;13.12;95.63
12247;BME280;6186;52.022;4.692;2023-10-19T00:16:13;99250.00;;;13.15;95.94
12247;BME280;6186;52.022;4.692;2023-10-19T00:18:38;99246.41;;;13.16;95.89
12247;BME280;6186;52.022;4.692;2023-10-19T00:21:03;99242.53;;;13.21;96.21
12247;BME280;6186;52.022;4.692;2023-10-19T00:23:29;99241.59;;;13.23;96.50
12247;BME280;6186;52.022;4.692;2023-10-19T00:25:59;99236.13;;;13.26;96.58
12247;BME280;6186;52.022;4.692;2023-10-19T00:28:25;99229.81;;;13.28;97.43
12247;BME280;6186;52.022;4.692;2023-10-19T00:30:50;99229.72;;;13.30;97.15
12247;BME280;6186;52.022;4.692;2023-10-19T00:33:15;99234.88;;;13.31;97.33
12247;BME280;6186;52.022;4.692;2023-10-19T00:35:41;99233.84;;;13.34;97.51
12247;BME280;6186;52.022;4.692;2023-10-19T00:38:06;99236.41;;;13.35;97.77
12247;BME280;6186;52.022;4.692;2023-10-19T00:40:31;99231.97;;;13.36;97.96
12247;BME280;6186;52.022;4.692;2023-10-19T00:42:56;99232.72;;;13.38;98.37
12247;BME280;6186;52.022;4.692;2023-10-19T00:45:21;99236.03;;;13.41;98.28
12247;BME280;6186;52.022;4.692;2023-10-19T00:47:47;99223.56;;;13.43;98.63
12247;BME280;6186;52.022;4.692;2023-10-19T00:50:12;99235.72;;;13.46;98.99
12247;BME280;6186;52.022;4.692;2023-10-19T00:52:38;99226.66;;;13.50;99.13
12247;BME280;6186;52.022;4.692;2023-10-19T00:55:04;99231.66;;;13.54;99.56
12247;BME280;6186;52.022;4.692;2023-10-19T00:57:29;99222.13;;;13.52;99.61
12247;BME280;6186;52.022;4.692;2023-10-19T00:59:55;99230.22;;;13.63;99.78
12247;BME280;6186;52.022;4.692;2023-10-19T01:02:21;99228.34;;;13.65;99.72
12247;BME280;6186;52.022;4.692;2023-10-19T01:04:48;99229.09;;;13.67;100.00
12247;BME280;6186;52.022;4.692;2023-10-19T01:07:13;99229.75;;;13.70;99.98
12247;BME280;6186;52.022;4.692;2023-10-19T01:09:39;99231.34;;;13.73;100.00
12247;BME280;6186;52.022;4.692;2023-10-19T01:12:05;99228.59;;;13.74;100.00
12247;BME280;6186;52.022;4.692;2023-10-19T01:14:30;99227.56;;;13.77;100.00
12247;BME280;6186;52.022;4.692;2023-10-19T01:16:55;99226.53;;;13.79;100.00
12247;BME280;6186;52.022;4.692;2023-10-19T01:19:20;99236.03;;;13.82;100.00
12247;BME280;6186;52.022;4.692;2023-10-19T01:21:45;99232.25;;;13.86;100.00
12247;BME280;6186;52.022;4.692;2023-10-19T01:24:11;99231.97;;;13.90;100.00
12247;BME280;6186;52.022;4.692;2023-10-19T01:26:36;99229.88;;;13.95;100.00
12247;BME280;6186;52.022;4.692;2023-10-19T01:29:01;99223.66;;;13.96;100.00
12247;BME280;6186;52.022;4.692;2023-10-19T01:31:26;99215.63;;;13.98;100.00
12247;BME280;6186;52.022;4.692;2023-10-19T01:33:52;99223.16;;;14.04;100.00
12247;BME280;6186;52.022;4.692;2023-10-19T01:36:17;99235.03;;;14.11;100.00
12247;BME280;6186;52.022;4.692;2023-10-19T01:38:42;99237.28;;;14.17;100.00
12247;BME280;6186;52.022;4.692;2023-10-19T01:41:08;99222.69;;;14.24;100.00
12247;BME280;6186;52.022;4.692;2023-10-19T01:43:33;99222.13;;;14.33;100.00
12247;BME280;6186;52.022;4.692;2023-10-19T01:46:01;99216.88;;;14.46;100.00
12247;BME280;6186;52.022;4.692;2023-10-19T01:48:26;99218.91;;;14.55;100.00
12247;BME280;6186;52.022;4.692;2023-10-19T01:50:51;99227.19;;;14.63;100.00
12247;BME280;6186;52.022;4.692;2023-10-19T01:53:17;99229.41;;;14.69;100.00
12247;BME280;6186;52.022;4.692;2023-10-19T01:55:43;99222.09;;;14.72;100.00
12247;BME280;6186;52.022;4.692;2023-10-19T01:58:09;99226.22;;;14.76;100.00
12247;BME280;6186;52.022;4.692;2023-10-19T02:00:34;99225.19;;;14.79;100.00
12247;BME280;6186;52.022;4.692;2023-10-19T02:02:59;99221.50;;;14.81;100.00
12247;BME280;6186;52.022;4.692;2023-10-19T02:05:27;99221.38;;;14.83;100.00
12247;BME280;6186;52.022;4.692;2023-10-19T02:07:52;99217.69;;;14.85;100.00
12247;BME280;6186;52.022;4.692;2023-10-19T02:10:17;99214.81;;;14.88;100.00
12247;BME280;6186;52.022;4.692;2023-10-19T02:12:42;99214.50;;;14.93;100.00
12247;BME280;6186;52.022;4.692;2023-10-19T02:15:08;99216.81;;;14.97;100.00
12247;BME280;6186;52.022;4.692;2023-10-19T02:17:33;99212.38;;;14.98;100.00
12247;BME280;6186;52.022;4.692;2023-10-19T02:19:58;99214.81;;;15.01;100.00
12247;BME280;6186;52.022;4.692;2023-10-19T02:22:23;99205.81;;;15.03;100.00
12247;BME280;6186;52.022;4.692;2023-10-19T02:24:49;99203.91;;;15.05;100.00
12247;BME280;6186;52.022;4.692;2023-10-19T02:27:14;99202.00;;;15.07;100.00
12247;BME280;6186;52.022;4.692;2023-10-19T02:29:39;99198.59;;;15.05;100.00
12247;BME280;6186;52.022;4.692;2023-10-19T02:32:04;99191.81;;;15.01;100.00
12247;BME280;6186;52.022;4.692;2023-10-19T02:34:30;99201.03;;;15.08;100.00
12247;BME280;6186;52.022;4.692;2023-10-19T02:36:55;99199.34;;;15.07;100.00
12247;BME280;6186;52.022;4.692;2023-10-19T02:39:20;99186.28;;;15.04;100.00
12247;BME280;6186;52.022;4.692;2023-10-19T02:41:46;99194.66;;;15.11;100.00
12247;BME280;6186;52.022;4.692;2023-10-19T02:44:17;99187.56;;;15.12;100.00
12247;BME280;6186;52.022;4.692;2023-10-19T02:46:44;99191.09;;;15.12;100.00
12247;BME280;6186;52.022;4.692;2023-10-19T02:49:13;99190.22;;;15.12;100.00
12247;BME280;6186;52.022;4.692;2023-10-19T02:51:39;99186.72;;;15.11;100.00
12247;BME280;6186;52.022;4.692;2023-10-19T02:54:06;99189.47;;;15.09;100.00
12247;BME280;6186;52.022;4.692;2023-10-19T02:56:32;99183.22;;;15.10;100.00
12247;BME280;6186;52.022;4.692;2023-10-19T02:58:57;99185.88;;;15.10;100.00
12247;BME280;6186;52.022;4.692;2023-10-19T03:01:22;99183.22;;;15.10;100.00
12247;BME280;6186;52.022;4.692;2023-10-19T03:03:50;99185.78;;;15.12;100.00
12247;BME280;6186;52.022;4.692;2023-10-19T03:06:20;99181.53;;;15.09;100.00
12247;BME280;6186;52.022;4.692;2023-10-19T03:08:45;99185.56;;;15.15;100.00
12247;BME280;6186;52.022;4.692;2023-10-19T03:11:11;99184.69;;;15.15;100.00
12247;BME280;6186;52.022;4.692;2023-10-19T03:13:36;99180.38;;;15.14;100.00
12247;BME280;6186;52.022;4.692;2023-10-19T03:16:01;99178.16;;;15.07;100.00
12247;BME280;6186;52.022;4.692;2023-10-19T03:18:27;99191.91;;;15.13;100.00
12247;BME280;6186;52.022;4.692;2023-10-19T03:20:52;99186.59;;;15.13;100.00
12247;BME280;6186;52.022;4.692;2023-10-19T03:23:17;99186.50;;;15.14;100.00
12247;BME280;6186;52.022;4.692;2023-10-19T03:25:42;99181.94;;;15.16;100.00
12247;BME280;6186;52.022;4.692;2023-10-19T03:28:08;99186.41;;;15.16;100.00
12247;BME280;6186;52.022;4.692;2023-10-19T03:30:33;99178.47;;;15.16;100.00
12247;BME280;6186;52.022;4.692;2023-10-19T03:32:58;99176.75;;;15.15;100.00
12247;BME280;6186;52.022;4.692;2023-10-19T03:35:23;99176.13;;;15.11;100.00
12247;BME280;6186;52.022;4.692;2023-10-19T03:37:48;99168.47;;;15.06;100.00
12247;BME280;6186;52.022;4.692;2023-10-19T03:40:14;99170.63;;;15.01;100.00
12247;BME280;6186;52.022;4.692;2023-10-19T03:42:39;99176.22;;;14.97;100.00
12247;BME280;6186;52.022;4.692;2023-10-19T03:45:05;99168.63;;;14.92;100.00
12247;BME280;6186;52.022;4.692;2023-10-19T03:47:30;99172.31;;;14.90;100.00
12247;BME280;6186;52.022;4.692;2023-10-19T03:49:55;99176.03;;;14.87;100.00
12247;BME280;6186;52.022;4.692;2023-10-19T03:52:20;99171.91;;;14.83;100.00
12247;BME280;6186;52.022;4.692;2023-10-19T03:54:47;99167.66;;;14.81;100.00
12247;BME280;6186;52.022;4.692;2023-10-19T03:57:14;99163.53;;;14.77;100.00
12247;BME280;6186;52.022;4.692;2023-10-19T03:59:41;99154.72;;;14.76;100.00
12247;BME280;6186;52.022;4.692;2023-10-19T04:02:07;99162.78;;;14.75;100.00
12247;BME280;6186;52.022;4.692;2023-10-19T04:04:32;99165.41;;;14.75;100.00
12247;BME280;6186;52.022;4.692;2023-10-19T04:06:58;99167.22;;;14.74;100.00
12247;BME280;6186;52.022;4.692;2023-10-19T04:09:24;99171.56;;;14.75;100.00
12247;BME280;6186;52.022;4.692;2023-10-19T04:11:49;99167.97;;;14.76;100.00
12247;BME280;6186;52.022;4.692;2023-10-19T04:14:15;99167.97;;;14.76;100.00
12247;BME280;6186;52.022;4.692;2023-10-19T04:16:41;99165.41;;;14.75;100.00
12247;BME280;6186;52.022;4.692;2023-10-19T04:19:06;99174.09;;;14.77;100.00
12247;BME280;6186;52.022;4.692;2023-10-19T04:21:32;99178.78;;;14.73;100.00
12247;BME280;6186;52.022;4.692;2023-10-19T04:23:57;99178.47;;;14.78;100.00
12247;BME280;6186;52.022;4.692;2023-10-19T04:26:22;99173.19;;;14.78;100.00
12247;BME280;6186;52.022;4.692;2023-10-19T04:28:47;99173.19;;;14.78;100.00
12247;BME280;6186;52.022;4.692;2023-10-19T04:31:12;99173.38;;;14.75;100.00
12247;BME280;6186;52.022;4.692;2023-10-19T04:33:38;99170.81;;;14.73;100.00
12247;BME280;6186;52.022;4.692;2023-10-19T04:36:03;99176.66;;;14.78;100.00
12247;BME280;6186;52.022;4.692;2023-10-19T04:38:29;99172.22;;;14.79;100.00
12247;BME280;6186;52.022;4.692;2023-10-19T04:40:54;99173.06;;;14.79;100.00
12247;BME280;6186;52.022;4.692;2023-10-19T04:43:20;99178.25;;;14.81;100.00
12247;BME280;6186;52.022;4.692;2023-10-19T04:45:45;99179.22;;;14.80;100.00
12247;BME280;6186;52.022;4.692;2023-10-19T04:48:10;99181.00;;;14.79;100.00
12247;BME280;6186;52.022;4.692;2023-10-19T04:50:36;99184.41;;;14.81;100.00
12247;BME280;6186;52.022;4.692;2023-10-19T04:53:01;99172.84;;;14.82;100.00
12247;BME280;6186;52.022;4.692;2023-10-19T04:55:26;99179.00;;;14.83;100.00
12247;BME280;6186;52.022;4.692;2023-10-19T04:57:51;99171.03;;;14.83;100.00
12247;BME280;6186;52.022;4.692;2023-10-19T05:00:17;99175.38;;;14.84;100.00
12247;BME280;6186;52.022;4.692;2023-10-19T05:02:43;99177.09;;;14.85;100.00
12247;BME280;6186;52.022;4.692;2023-10-19T05:05:08;99178.13;;;14.82;100.00
12247;BME280;6186;52.022;4.692;2023-10-19T05:07:34;99184.06;;;14.86;100.00
12247;BME280;6186;52.022;4.692;2023-10-19T05:09:59;99186.72;;;14.86;100.00
12247;BME280;6186;52.022;4.692;2023-10-19T05:12:24;99187.06;;;14.81;100.00
12247;BME280;6186;52.022;4.692;2023-10-19T05:14:49;99185.78;;;14.87;100.00
12247;BME280;6186;52.022;4.692;2023-10-19T05:17:15;99187.56;;;14.86;100.00
12247;BME280;6186;52.022;4.692;2023-10-19T05:19:40;99187.78;;;14.83;100.00
12247;BME280;6186;52.022;4.692;2023-10-19T05:22:06;99188.31;;;14.88;100.00
12247;BME280;6186;52.022;4.692;2023-10-19T05:24:32;99187.47;;;14.88;100.00
12247;BME280;6186;52.022;4.692;2023-10-19T05:26:58;99189.28;;;14.87;100.00
12247;BME280;6186;52.022;4.692;2023-10-19T05:29:23;99194.47;;;14.89;100.00
12247;BME280;6186;52.022;4.692;2023-10-19T05:31:48;99189.16;;;14.89;100.00
12247;BME280;6186;52.022;4.692;2023-10-19T05:34:15;99192.66;;;14.89;100.00
12247;BME280;6186;52.022;4.692;2023-10-19T05:36:40;99204.09;;;14.90;100.00
12247;BME280;6186;52.022;4.692;2023-10-19T05:39:06;99203.16;;;14.91;100.00
12247;BME280;6186;52.022;4.692;2023-10-19T05:41:31;99184.00;;;14.87;100.00
12247;BME280;6186;52.022;4.692;2023-10-19T05:43:56;99183.25;;;14.85;100.00
12247;BME280;6186;52.022;4.692;2023-10-19T05:46:21;99197.94;;;14.89;100.00
12247;BME280;6186;52.022;4.692;2023-10-19T05:48:48;99189.28;;;14.87;100.00
12247;BME280;6186;52.022;4.692;2023-10-19T05:51:13;99200.59;;;14.89;100.00
12247;BME280;6186;52.022;4.692;2023-10-19T05:53:38;99201.44;;;14.90;100.00
12247;BME280;6186;52.022;4.692;2023-10-19T05:56:03;99200.59;;;14.89;100.00
12247;BME280;6186;52.022;4.692;2023-10-19T05:58:29;99197.13;;;14.89;100.00
12247;BME280;6186;52.022;4.692;2023-10-19T06:00:58;99198.91;;;14.88;100.00
12247;BME280;6186;52.022;4.692;2023-10-19T06:03:23;99196.25;;;14.88;100.00
12247;BME280;6186;52.022;4.692;2023-10-19T06:05:48;99194.59;;;14.87;100.00
12247;BME280;6186;52.022;4.692;2023-10-19T06:08:14;99196.38;;;14.87;100.00
12247;BME280;6186;52.022;4.692;2023-10-19T06:10:39;99201.69;;;14.87;100.00
12247;BME280;6186;52.022;4.692;2023-10-19T06:13:04;99204.22;;;14.88;100.00
12247;BME280;6186;52.022;4.692;2023-10-19T06:15:29;99208.66;;;14.88;100.00
12247;BME280;6186;52.022;4.692;2023-10-19T06:17:55;99213.00;;;14.89;100.00
12247;BME280;6186;52.022;4.692;2023-10-19T06:20:20;99209.50;;;14.88;100.00
12247;BME280;6186;52.022;4.692;2023-10-19T06:22:46;99207.72;;;14.89;100.00
12247;BME280;6186;52.022;4.692;2023-10-19T06:25:12;99212.91;;;14.90;100.00
12247;BME280;6186;52.022;4.692;2023-10-19T06:27:37;99215.44;;;14.92;100.00
12247;BME280;6186;52.022;4.692;2023-10-19T06:30:02;99223.19;;;14.95;100.00
12247;BME280;6186;52.022;4.692;2023-10-19T06:32:27;99224.03;;;14.95;100.00
12247;BME280;6186;52.022;4.692;2023-10-19T06:34:53;99222.13;;;14.97;100.00
12247;BME280;6186;52.022;4.692;2023-10-19T06:37:18;99227.31;;;14.99;100.00
12247;BME280;6186;52.022;4.692;2023-10-19T06:39:43;99214.16;;;14.97;100.00
12247;BME280;6186;52.022;4.692;2023-10-19T06:42:08;99226.16;;;15.03;100.00
12247;BME280;6186;52.022;4.692;2023-10-19T06:44:34;99234.09;;;15.03;100.00
12247;BME280;6186;52.022;4.692;2023-10-19T06:46:59;99236.63;;;15.04;100.00
12247;BME280;6186;52.022;4.692;2023-10-19T06:49:24;99236.63;;;15.04;100.00
12247;BME280;6186;52.022;4.692;2023-10-19T06:51:49;99232.00;;;15.08;100.00
12247;BME280;6186;52.022;4.692;2023-10-19T06:54:14;99233.69;;;15.09;100.00
12247;BME280;6186;52.022;4.692;2023-10-19T06:56:40;99229.22;;;15.09;100.00
12247;BME280;6186;52.022;4.692;2023-10-19T06:59:05;99235.28;;;15.12;100.00
12247;BME280;6186;52.022;4.692;2023-10-19T07:01:30;99236.03;;;15.14;100.00
12247;BME280;6186;52.022;4.692;2023-10-19T07:03:55;99233.38;;;15.14;100.00
12247;BME280;6186;52.022;4.692;2023-10-19T07:06:20;99244.72;;;15.16;100.00
12247;BME280;6186;52.022;4.692;2023-10-19T07:08:46;99243.63;;;15.18;100.00
12247;BME280;6186;52.022;4.692;2023-10-19T07:11:11;99242.69;;;15.19;100.00
12247;BME280;6186;52.022;4.692;2023-10-19T07:13:36;99230.09;;;15.10;100.00
12247;BME280;6186;52.022;4.692;2023-10-19T07:16:01;99246.84;;;15.23;100.00
12247;BME280;6186;52.022;4.692;2023-10-19T07:18:26;99251.06;;;15.26;100.00
12247;BME280;6186;52.022;4.692;2023-10-19T07:20:52;99250.75;;;15.30;100.00
12247;BME280;6186;52.022;4.692;2023-10-19T07:23:17;99252.44;;;15.31;100.00
12247;BME280;6186;52.022;4.692;2023-10-19T07:25:42;99252.34;;;15.33;100.00
12247;BME280;6186;52.022;4.692;2023-10-19T07:28:07;99249.47;;;15.36;100.00
12247;BME280;6186;52.022;4.692;2023-10-19T07:30:33;99245.03;;;15.36;100.00
12247;BME280;6186;52.022;4.692;2023-10-19T07:32:58;99252.88;;;15.38;100.00
12247;BME280;6186;52.022;4.692;2023-10-19T07:35:23;99252.75;;;15.39;100.00
12247;BME280;6186;52.022;4.692;2023-10-19T07:37:48;99249.16;;;15.40;100.00
12247;BME280;6186;52.022;4.692;2023-10-19T07:40:14;99240.66;;;15.35;100.00
12247;BME280;6186;52.022;4.692;2023-10-19T07:42:42;99257.03;;;15.42;100.00
12247;BME280;6186;52.022;4.692;2023-10-19T07:45:07;99246.44;;;15.42;100.00
12247;BME280;6186;52.022;4.692;2023-10-19T07:47:33;99242.81;;;15.43;100.00
12247;BME280;6186;52.022;4.692;2023-10-19T07:49:58;99241.00;;;15.43;100.00
12247;BME280;6186;52.022;4.692;2023-10-19T07:52:23;99250.69;;;15.44;100.00
12247;BME280;6186;52.022;4.692;2023-10-19T07:54:49;99258.53;;;15.46;100.00
12247;BME280;6186;52.022;4.692;2023-10-19T07:57:14;99261.06;;;15.47;100.00
12247;BME280;6186;52.022;4.692;2023-10-19T07:59:39;99265.38;;;15.48;100.00
12247;BME280;6186;52.022;4.692;2023-10-19T08:02:05;99261.91;;;15.48;100.00
12247;BME280;6186;52.022;4.692;2023-10-19T08:04:30;99255.53;;;15.50;100.00
12247;BME280;6186;52.022;4.692;2023-10-19T08:06:57;99252.78;;;15.52;100.00
12247;BME280;6186;52.022;4.692;2023-10-19T08:09:23;99245.03;;;15.49;100.00
12247;BME280;6186;52.022;4.692;2023-10-19T08:11:49;99248.19;;;15.54;100.00
12247;BME280;6186;52.022;4.692;2023-10-19T08:14:14;99250.66;;;15.57;100.00
12247;BME280;6186;52.022;4.692;2023-10-19T08:16:40;99246.94;;;15.59;100.00
12247;BME280;6186;52.022;4.692;2023-10-19T08:19:05;99233.03;;;15.56;100.00
12247;BME280;6186;52.022;4.692;2023-10-19T08:21:30;99237.91;;;15.62;100.00
12247;BME280;6186;52.022;4.692;2023-10-19T08:23:55;99246.41;;;15.67;100.00
12247;BME280;6186;52.022;4.692;2023-10-19T08:26:20;99207.47;;;15.55;100.00
12247;BME280;6186;52.022;4.692;2023-10-19T08:28:46;99238.94;;;15.72;100.00
12247;BME280;6186;52.022;4.692;2023-10-19T08:31:11;99236.81;;;15.77;100.00
12247;BME280;6186;52.022;4.692;2023-10-19T08:33:36;99231.50;;;15.77;100.00
12247;BME280;6186;52.022;4.692;2023-10-19T08:36:01;99237.84;;;15.87;100.00
12247;BME280;6186;52.022;4.692;2023-10-19T08:38:27;99238.16;;;15.95;100.00
12247;BME280;6186;52.022;4.692;2023-10-19T08:40:53;99241.94;;;16.03;100.00
12247;BME280;6186;52.022;4.692;2023-10-19T08:43:19;99250.31;;;16.10;100.00
12247;BME280;6186;52.022;4.692;2023-10-19T08:45:44;99240.69;;;16.20;100.00
12247;BME280;6186;52.022;4.692;2023-10-19T08:48:10;99237.25;;;16.31;100.00
12247;BME280;6186;52.022;4.692;2023-10-19T08:50:35;99235.91;;;16.49;100.00
12247;BME280;6186;52.022;4.692;2023-10-19T08:53:02;99239.94;;;16.65;100.00
12247;BME280;6186;52.022;4.692;2023-10-19T08:55:28;99241.47;;;16.80;100.00
12247;BME280;6186;52.022;4.692;2023-10-19T08:57:53;99243.56;;;16.99;100.00
12247;BME280;6186;52.022;4.692;2023-10-19T09:00:19;99238.63;;;17.17;100.00
12247;BME280;6186;52.022;4.692;2023-10-19T09:02:45;99248.31;;;17.29;100.00
12247;BME280;6186;52.022;4.692;2023-10-19T09:05:11;99241.56;;;17.36;100.00
12247;BME280;6186;52.022;4.692;2023-10-19T09:07:36;99247.63;;;17.49;100.00
12247;BME280;6186;52.022;4.692;2023-10-19T09:10:01;99236.28;;;17.58;100.00
12247;BME280;6186;52.022;4.692;2023-10-19T09:12:26;99224.78;;;17.57;100.00
12247;BME280;6186;52.022;4.692;2023-10-19T09:14:52;99226.84;;;17.65;100.00
12247;BME280;6186;52.022;4.692;2023-10-19T09:17:27;99228.91;;;17.72;100.00
12247;BME280;6186;52.022;4.692;2023-10-19T09:19:53;99229.63;;;17.74;100.00
12247;BME280;6186;52.022;4.692;2023-10-19T09:22:18;99232.88;;;17.78;100.00
12247;BME280;6186;52.022;4.692;2023-10-19T09:24:48;99222.09;;;17.79;100.00
12247;BME280;6186;52.022;4.692;2023-10-19T09:27:16;99222.69;;;17.83;100.00
12247;BME280;6186;52.022;4.692;2023-10-19T09:29:42;99217.38;;;17.83;100.00
12247;BME280;6186;52.022;4.692;2023-10-19T09:32:07;99214.72;;;17.83;100.00
12247;BME280;6186;52.022;4.692;2023-10-19T09:34:33;99219.53;;;17.89;100.00
12247;BME280;6186;52.022;4.692;2023-10-19T09:37:00;99215.94;;;17.90;100.00
12247;BME280;6186;52.022;4.692;2023-10-19T09:39:26;99211.31;;;17.92;100.00
12247;BME280;6186;52.022;4.692;2023-10-19T09:41:52;99209.34;;;17.94;100.00
12247;BME280;6186;52.022;4.692;2023-10-19T09:44:20;99205.75;;;17.95;100.00
12247;BME280;6186;52.022;4.692;2023-10-19T09:46:50;99198.84;;;17.93;100.00
12247;BME280;6186;52.022;4.692;2023-10-19T09:49:19;99201.13;;;17.97;100.00
12247;BME280;6186;52.022;4.692;2023-10-19T09:51:45;99195.06;;;18.06;100.00
12247;BME280;6186;52.022;4.692;2023-10-19T09:54:18;99199.53;;;18.17;100.00
12247;BME280;6186;52.022;4.692;2023-10-19T09:56:50;99194.06;;;18.18;100.00
12247;BME280;6186;52.022;4.692;2023-10-19T09:59:32;99207.47;;;18.28;100.00
12247;BME280;6186;52.022;4.692;2023-10-19T10:02:07;99199.31;;;18.40;100.00
12247;BME280;6186;52.022;4.692;2023-10-19T10:04:34;99209.34;;;18.48;100.00
12247;BME280;6186;52.022;4.692;2023-10-19T10:06:59;99202.94;;;18.50;100.00
12247;BME280;6186;52.022;4.692;2023-10-19T10:09:28;99198.78;;;18.57;100.00
12247;BME280;6186;52.022;4.692;2023-10-19T10:11:54;99198.00;;;18.66;100.00
12247;BME280;6186;52.022;4.692;2023-10-19T10:14:22;99202.88;;;18.82;100.00
12247;BME280;6186;52.022;4.692;2023-10-19T10:16:47;99195.31;;;18.87;100.00
12247;BME280;6186;52.022;4.692;2023-10-19T10:19:20;99183.84;;;18.87;100.00
12247;BME280;6186;52.022;4.692;2023-10-19T10:22:12;99197.34;;;18.95;100.00
12247;BME280;6186;52.022;4.692;2023-10-19T10:24:43;99185.00;;;18.94;100.00
12247;BME280;6186;52.022;4.692;2023-10-19T10:27:09;99187.97;;;19.00;100.00
12247;BME280;6186;52.022;4.692;2023-10-19T10:29:34;99178.63;;;19.15;100.00
12247;BME280;6186;52.022;4.692;2023-10-19T10:31:59;99186.41;;;19.48;100.00
12247;BME280;6186;52.022;4.692;2023-10-19T10:37:09;99190.38;;;20.13;100.00
12247;BME280;6186;52.022;4.692;2023-10-19T10:39:35;99199.69;;;20.18;100.00
12247;BME280;6186;52.022;4.692;2023-10-19T10:42:05;99185.50;;;20.37;100.00
12247;BME280;6186;52.022;4.692;2023-10-19T10:47:01;99195.88;;;20.69;100.00
12247;BME280;6186;52.022;4.692;2023-10-19T10:49:27;99183.81;;;20.45;100.00
12247;BME280;6186;52.022;4.692;2023-10-19T10:51:54;99198.59;;;20.49;100.00
12247;BME280;6186;52.022;4.692;2023-10-19T10:54:21;99189.72;;;20.39;100.00
12247;BME280;6186;52.022;4.692;2023-10-19T10:56:47;99189.16;;;20.26;100.00
12247;BME280;6186;52.022;4.692;2023-10-19T10:59:12;99190.91;;;20.07;100.00
12247;BME280;6186;52.022;4.692;2023-10-19T11:01:38;99185.41;;;19.89;100.00
12247;BME280;6186;52.022;4.692;2023-10-19T11:04:10;99189.91;;;19.79;100.00
12247;BME280;6186;52.022;4.692;2023-10-19T11:06:48;99192.44;;;19.90;100.00
12247;BME280;6186;52.022;4.692;2023-10-19T11:09:13;99194.28;;;19.99;100.00
12247;BME280;6186;52.022;4.692;2023-10-19T11:11:40;99182.50;;;20.02;100.00
12247;BME280;6186;52.022;4.692;2023-10-19T11:14:09;99189.38;;;20.04;100.00
12247;BME280;6186;52.022;4.692;2023-10-19T11:16:35;99186.59;;;20.15;100.00
12247;BME280;6186;52.022;4.692;2023-10-19T11:19:00;99182.81;;;20.37;100.00
12247;BME280;6186;52.022;4.692;2023-10-19T11:21:25;99189.88;;;20.57;100.00
12247;BME280;6186;52.022;4.692;2023-10-19T11:23:53;99187.47;;;20.63;100.00
12247;BME280;6186;52.022;4.692;2023-10-19T11:26:22;99184.03;;;20.90;100.00
12247;BME280;6186;52.022;4.692;2023-10-19T11:28:56;99172.56;;;21.26;100.00
12247;BME280;6186;52.022;4.692;2023-10-19T11:31:23;99165.31;;;21.46;100.00
12247;BME280;6186;52.022;4.692;2023-10-19T11:33:49;99157.53;;;21.52;100.00
12247;BME280;6186;52.022;4.692;2023-10-19T11:36:16;99153.44;;;21.48;100.00
12247;BME280;6186;52.022;4.692;2023-10-19T11:38:43;99148.41;;;21.45;100.00
12247;BME280;6186;52.022;4.692;2023-10-19T11:41:09;99146.47;;;21.38;100.00
12247;BME280;6186;52.022;4.692;2023-10-19T11:43:35;99144.84;;;21.18;100.00
12247;BME280;6186;52.022;4.692;2023-10-19T11:46:01;99138.53;;;21.00;100.00
12247;BME280;6186;52.022;4.692;2023-10-19T11:48:26;99124.13;;;20.74;100.00
12247;BME280;6186;52.022;4.692;2023-10-19T11:50:52;99141.44;;;20.60;100.00
12247;BME280;6186;52.022;4.692;2023-10-19T11:53:17;99137.69;;;20.43;100.00
12247;BME280;6186;52.022;4.692;2023-10-19T11:55:42;99134.31;;;20.32;100.00
12247;BME280;6186;52.022;4.692;2023-10-19T11:58:08;99124.47;;;20.23;100.00
12247;BME280;6186;52.022;4.692;2023-10-19T12:00:33;99135.13;;;20.13;100.00
12247;BME280;6186;52.022;4.692;2023-10-19T12:02:58;99132.59;;;20.02;100.00
12247;BME280;6186;52.022;4.692;2023-10-19T12:05:24;99126.66;;;19.89;100.00
12247;BME280;6186;52.022;4.692;2023-10-19T12:07:49;99126.22;;;19.75;100.00
12247;BME280;6186;52.022;4.692;2023-10-19T12:10:14;99124.66;;;19.62;100.00
12247;BME280;6186;52.022;4.692;2023-10-19T12:12:39;99133.59;;;19.52;100.00
12247;BME280;6186;52.022;4.692;2023-10-19T12:15:06;99127.38;;;19.42;100.00
12247;BME280;6186;52.022;4.692;2023-10-19T12:17:32;99126.25;;;19.35;100.00
12247;BME280;6186;52.022;4.692;2023-10-19T12:19:57;99131.28;;;19.28;100.00
12247;BME280;6186;52.022;4.692;2023-10-19T12:22:23;99123.66;;;19.24;100.00
12247;BME280;6186;52.022;4.692;2023-10-19T12:24:48;99111.56;;;19.20;100.00
12247;BME280;6186;52.022;4.692;2023-10-19T12:27:14;99118.13;;;19.16;100.00
12247;BME280;6186;52.022;4.692;2023-10-19T12:29:39;99106.75;;;19.14;100.00
12247;BME280;6186;52.022;4.692;2023-10-19T12:32:05;99110.66;;;19.10;100.00
12247;BME280;6186;52.022;4.692;2023-10-19T12:34:31;99110.09;;;19.06;100.00
12247;BME280;6186;52.022;4.692;2023-10-19T12:36:56;99107.56;;;19.05;100.00
12247;BME280;6186;52.022;4.692;2023-10-19T12:39:21;99099.56;;;19.05;100.00
12247;BME280;6186;52.022;4.692;2023-10-19T12:41:46;99096.06;;;19.04;100.00
12247;BME280;6186;52.022;4.692;2023-10-19T12:44:12;99087.47;;;19.01;100.00
12247;BME280;6186;52.022;4.692;2023-10-19T12:46:37;99107.28;;;18.98;100.00
12247;BME280;6186;52.022;4.692;2023-10-19T12:49:05;99107.66;;;18.94;100.00
12247;BME280;6186;52.022;4.692;2023-10-19T12:51:30;99103.56;;;18.90;100.00
12247;BME280;6186;52.022;4.692;2023-10-19T12:53:55;99102.16;;;18.86;100.00
12247;BME280;6186;52.022;4.692;2023-10-19T12:56:21;99096.25;;;18.82;100.00
12247;BME280;6186;52.022;4.692;2023-10-19T12:58:47;99100.00;;;18.79;100.00